sensor_id;sensor_type;location;lat;lon;timestamp;pressure;altitude;pressure_sealevel;temperature;humidity
21011;BME280;10663;42.714;23.274;2022-10-22T00:01:14;95654.88;;;7.00;91.61
21011;BME280;10663;42.714;23.274;2022-10-22T00:02:45;95658.75;;;6.98;90.96
21011;BME280;10663;42.714;23.274;2022-10-22T00:04:16;95654.41;;;7.03;90.93
21011;BME280;10663;42.714;23.274;2022-10-22T00:05:47;95658.22;;;6.89;90.76
21011;BME280;10663;42.714;23.274;2022-10-22T00:07:19;95650.09;;;6.91;90.39
21011;BME280;10663;42.714;23.274;2022-10-22T00:08:50;95650.63;;;6.99;90.88
21011;BME280;10663;42.714;23.274;2022-10-22T00:10:21;95654.59;;;7.27;90.63
21011;BME280;10663;42.714;23.274;2022-10-22T00:11:52;95658.66;;;7.41;88.09
21011;BME280;10663;42.714;23.274;2022-10-22T00:13:24;95653.81;;;7.56;88.10
21011;BME280;10663;42.714;23.274;2022-10-22T00:14:54;95655.28;;;7.52;87.67
21011;BME280;10663;42.714;23.274;2022-10-22T00:16:25;95652.50;;;7.47;87.07
21011;BME280;10663;42.714;23.274;2022-10-22T00:17:56;95657.25;;;7.38;87.40
21011;BME280;10663;42.714;23.274;2022-10-22T00:19:27;95659.84;;;7.27;87.42
21011;BME280;10663;42.714;23.274;2022-10-22T00:20:58;95662.09;;;7.05;87.76
21011;BME280;10663;42.714;23.274;2022-10-22T00:22:29;95653.47;;;6.98;89.02
21011;BME280;10663;42.714;23.274;2022-10-22T00:24:00;95655.31;;;7.16;89.19
21011;BME280;10663;42.714;23.274;2022-10-22T00:25:33;95649.75;;;7.05;88.77
21011;BME280;10663;42.714;23.274;2022-10-22T00:27:04;95648.81;;;7.00;89.31
21011;BME280;10663;42.714;23.274;2022-10-22T00:28:36;95637.81;;;7.03;89.56
21011;BME280;10663;42.714;23.274;2022-10-22T00:30:07;95635.94;;;7.10;89.25
21011;BME280;10663;42.714;23.274;2022-10-22T00:31:38;95634.47;;;7.14;89.52
21011;BME280;10663;42.714;23.274;2022-10-22T00:33:09;95635.13;;;7.09;88.82
21011;BME280;10663;42.714;23.274;2022-10-22T00:34:39;95633.84;;;6.94;89.00
21011;BME280;10663;42.714;23.274;2022-10-22T00:36:10;95638.25;;;6.82;90.10
21011;BME280;10663;42.714;23.274;2022-10-22T00:37:42;95637.13;;;6.71;90.00
21011;BME280;10663;42.714;23.274;2022-10-22T00:39:14;95635.00;;;6.61;90.19
21011;BME280;10663;42.714;23.274;2022-10-22T00:40:46;95636.34;;;6.70;90.51
21011;BME280;10663;42.714;23.274;2022-10-22T00:42:20;95641.59;;;6.70;91.08
21011;BME280;10663;42.714;23.274;2022-10-22T00:43:53;95640.63;;;6.65;90.46
21011;BME280;10663;42.714;23.274;2022-10-22T00:45:26;95649.25;;;6.54;90.72
21011;BME280;10663;42.714;23.274;2022-10-22T00:46:58;95641.84;;;6.44;91.51
21011;BME280;10663;42.714;23.274;2022-10-22T00:48:30;95645.69;;;6.42;91.42
21011;BME280;10663;42.714;23.274;2022-10-22T00:50:05;95644.50;;;6.37;92.07
21011;BME280;10663;42.714;23.274;2022-10-22T00:51:37;95641.50;;;6.34;92.54
21011;BME280;10663;42.714;23.274;2022-10-22T00:53:17;95644.94;;;6.34;93.08
21011;BME280;10663;42.714;23.274;2022-10-22T00:54:49;95637.16;;;6.46;93.28
21011;BME280;10663;42.714;23.274;2022-10-22T00:56:22;95629.53;;;6.38;93.22
21011;BME280;10663;42.714;23.274;2022-10-22T00:57:54;95627.34;;;6.35;93.67
21011;BME280;10663;42.714;23.274;2022-10-22T00:59:26;95620.47;;;6.34;94.62
21011;BME280;10663;42.714;23.274;2022-10-22T01:00:58;95629.97;;;6.35;94.04
21011;BME280;10663;42.714;23.274;2022-10-22T01:02:29;95626.88;;;6.38;94.27
21011;BME280;10663;42.714;23.274;2022-10-22T01:04:00;95622.06;;;6.35;94.60
21011;BME280;10663;42.714;23.274;2022-10-22T01:05:37;95623.25;;;6.39;93.95
21011;BME280;10663;42.714;23.274;2022-10-22T01:07:21;95618.03;;;6.32;93.36
21011;BME280;10663;42.714;23.274;2022-10-22T01:09:30;95613.25;;;6.23;94.02
21011;BME280;10663;42.714;23.274;2022-10-22T01:18:28;95603.00;;;6.15;95.08
21011;BME280;10663;42.714;23.274;2022-10-22T01:22:25;95596.38;;;6.37;94.61
21011;BME280;10663;42.714;23.274;2022-10-22T01:26:00;95597.41;;;6.29;94.16
21011;BME280;10663;42.714;23.274;2022-10-22T01:29:24;95587.16;;;6.28;94.49
21011;BME280;10663;42.714;23.274;2022-10-22T01:30:58;95585.06;;;6.30;94.95
21011;BME280;10663;42.714;23.274;2022-10-22T01:32:33;95591.78;;;6.51;94.14
21011;BME280;10663;42.714;23.274;2022-10-22T01:34:07;95580.94;;;6.41;93.70
21011;BME280;10663;42.714;23.274;2022-10-22T01:35:42;95576.97;;;6.31;94.23
21011;BME280;10663;42.714;23.274;2022-10-22T01:37:16;95577.78;;;6.32;93.75
21011;BME280;10663;42.714;23.274;2022-10-22T01:38:49;95580.03;;;6.28;93.73
21011;BME280;10663;42.714;23.274;2022-10-22T01:40:22;95579.75;;;6.18;94.17
21011;BME280;10663;42.714;23.274;2022-10-22T01:41:54;95581.59;;;6.11;94.95
21011;BME280;10663;42.714;23.274;2022-10-22T01:43:26;95578.81;;;6.06;95.19
21011;BME280;10663;42.714;23.274;2022-10-22T01:44:56;95580.84;;;6.04;95.65
21011;BME280;10663;42.714;23.274;2022-10-22T01:46:28;95572.75;;;6.06;96.23
21011;BME280;10663;42.714;23.274;2022-10-22T01:48:17;95573.97;;;6.03;96.29
21011;BME280;10663;42.714;23.274;2022-10-22T01:53:59;95579.88;;;5.98;95.92
21011;BME280;10663;42.714;23.274;2022-10-22T01:57:33;95580.63;;;6.06;95.53
21011;BME280;10663;42.714;23.274;2022-10-22T01:59:53;95572.91;;;6.11;95.80
21011;BME280;10663;42.714;23.274;2022-10-22T02:03:09;95582.94;;;6.45;94.33
21011;BME280;10663;42.714;23.274;2022-10-22T02:04:48;95582.03;;;6.33;94.15
21011;BME280;10663;42.714;23.274;2022-10-22T02:06:21;95578.06;;;6.24;94.54
21011;BME280;10663;42.714;23.274;2022-10-22T02:08:01;95574.47;;;6.18;95.36
21011;BME280;10663;42.714;23.274;2022-10-22T02:09:33;95575.38;;;6.30;95.79
21011;BME280;10663;42.714;23.274;2022-10-22T02:11:05;95579.50;;;6.45;94.36
21011;BME280;10663;42.714;23.274;2022-10-22T02:12:37;95573.94;;;6.53;93.65
21011;BME280;10663;42.714;23.274;2022-10-22T02:14:10;95573.28;;;6.57;91.32
21011;BME280;10663;42.714;23.274;2022-10-22T02:15:45;95572.47;;;6.57;90.29
21011;BME280;10663;42.714;23.274;2022-10-22T02:17:19;95572.34;;;6.52;90.17
21011;BME280;10663;42.714;23.274;2022-10-22T02:18:53;95574.16;;;6.51;90.63
21011;BME280;10663;42.714;23.274;2022-10-22T02:20:27;95563.78;;;6.56;90.75
21011;BME280;10663;42.714;23.274;2022-10-22T02:21:58;95565.56;;;6.37;91.32
21011;BME280;10663;42.714;23.274;2022-10-22T02:23:30;95572.75;;;6.49;91.89
21011;BME280;10663;42.714;23.274;2022-10-22T02:25:02;95569.91;;;6.50;91.96
21011;BME280;10663;42.714;23.274;2022-10-22T02:26:38;95576.09;;;6.37;91.65
21011;BME280;10663;42.714;23.274;2022-10-22T02:29:11;95582.63;;;6.35;92.54
21011;BME280;10663;42.714;23.274;2022-10-22T02:30:27;95585.13;;;6.48;91.30
21011;BME280;10663;42.714;23.274;2022-10-22T02:32:00;95583.56;;;6.41;91.68
21011;BME280;10663;42.714;23.274;2022-10-22T02:33:36;95583.47;;;6.29;92.40
21011;BME280;10663;42.714;23.274;2022-10-22T02:35:12;95582.94;;;6.45;91.78
21011;BME280;10663;42.714;23.274;2022-10-22T02:36:45;95579.81;;;6.55;92.29
21011;BME280;10663;42.714;23.274;2022-10-22T02:38:17;95578.75;;;6.56;91.69
21011;BME280;10663;42.714;23.274;2022-10-22T02:39:49;95582.78;;;6.58;91.71
21011;BME280;10663;42.714;23.274;2022-10-22T02:41:21;95589.25;;;6.37;91.59
21011;BME280;10663;42.714;23.274;2022-10-22T02:42:53;95589.81;;;6.21;92.38
21011;BME280;10663;42.714;23.274;2022-10-22T02:44:24;95592.13;;;6.11;92.98
21011;BME280;10663;42.714;23.274;2022-10-22T02:45:55;95592.97;;;6.05;93.61
21011;BME280;10663;42.714;23.274;2022-10-22T02:47:26;95586.97;;;5.98;94.57
21011;BME280;10663;42.714;23.274;2022-10-22T02:48:57;95593.66;;;5.94;94.60
21011;BME280;10663;42.714;23.274;2022-10-22T02:50:28;95593.69;;;5.87;95.33
21011;BME280;10663;42.714;23.274;2022-10-22T02:51:59;95587.03;;;5.91;95.69
21011;BME280;10663;42.714;23.274;2022-10-22T02:53:30;95592.88;;;5.87;95.81
21011;BME280;10663;42.714;23.274;2022-10-22T02:55:01;95593.53;;;5.82;95.56
21011;BME280;10663;42.714;23.274;2022-10-22T02:56:32;95583.44;;;5.79;96.13
21011;BME280;10663;42.714;23.274;2022-10-22T02:58:03;95584.84;;;5.82;96.67
21011;BME280;10663;42.714;23.274;2022-10-22T02:59:34;95586.78;;;5.93;96.54
21011;BME280;10663;42.714;23.274;2022-10-22T03:01:05;95583.94;;;5.94;96.61
21011;BME280;10663;42.714;23.274;2022-10-22T03:02:36;95587.38;;;5.95;96.40
21011;BME280;10663;42.714;23.274;2022-10-22T03:04:07;95593.84;;;5.99;96.62
21011;BME280;10663;42.714;23.274;2022-10-22T03:05:38;95593.78;;;6.06;96.03
21011;BME280;10663;42.714;23.274;2022-10-22T03:07:09;95587.19;;;5.96;95.84
21011;BME280;10663;42.714;23.274;2022-10-22T03:08:40;95584.69;;;6.01;96.25
21011;BME280;10663;42.714;23.274;2022-10-22T03:10:11;95587.19;;;5.96;96.51
21011;BME280;10663;42.714;23.274;2022-10-22T03:11:42;95577.53;;;6.15;95.84
21011;BME280;10663;42.714;23.274;2022-10-22T03:13:13;95578.53;;;6.14;95.47
21011;BME280;10663;42.714;23.274;2022-10-22T03:14:44;95578.97;;;6.11;95.09
21011;BME280;10663;42.714;23.274;2022-10-22T03:16:15;95575.56;;;6.29;95.48
21011;BME280;10663;42.714;23.274;2022-10-22T03:17:46;95577.97;;;6.37;94.59
21011;BME280;10663;42.714;23.274;2022-10-22T03:19:17;95574.38;;;6.50;94.13
21011;BME280;10663;42.714;23.274;2022-10-22T03:20:48;95577.81;;;6.50;93.55
21011;BME280;10663;42.714;23.274;2022-10-22T03:22:24;95574.59;;;6.48;94.09
21011;BME280;10663;42.714;23.274;2022-10-22T03:23:57;95586.03;;;6.60;92.89
21011;BME280;10663;42.714;23.274;2022-10-22T03:25:29;95576.06;;;6.44;91.71
21011;BME280;10663;42.714;23.274;2022-10-22T03:27:04;95578.72;;;6.37;92.57
21011;BME280;10663;42.714;23.274;2022-10-22T03:28:35;95577.22;;;6.48;92.35
21011;BME280;10663;42.714;23.274;2022-10-22T03:30:08;95582.13;;;6.45;91.71
21011;BME280;10663;42.714;23.274;2022-10-22T03:31:38;95577.44;;;6.47;92.34
21011;BME280;10663;42.714;23.274;2022-10-22T03:33:09;95574.16;;;6.51;90.89
21011;BME280;10663;42.714;23.274;2022-10-22T03:34:40;95573.84;;;6.41;91.51
21011;BME280;10663;42.714;23.274;2022-10-22T03:36:11;95582.13;;;6.45;92.29
21011;BME280;10663;42.714;23.274;2022-10-22T03:37:42;95576.38;;;6.54;91.84
21011;BME280;10663;42.714;23.274;2022-10-22T03:39:14;95568.91;;;6.51;91.87
21011;BME280;10663;42.714;23.274;2022-10-22T03:40:45;95571.84;;;6.61;92.55
21011;BME280;10663;42.714;23.274;2022-10-22T03:42:17;95572.78;;;6.67;91.65
21011;BME280;10663;42.714;23.274;2022-10-22T03:43:48;95572.16;;;6.71;90.99
21011;BME280;10663;42.714;23.274;2022-10-22T03:45:22;95575.41;;;6.67;91.08
21011;BME280;10663;42.714;23.274;2022-10-22T03:46:53;95579.31;;;6.39;91.67
21011;BME280;10663;42.714;23.274;2022-10-22T03:48:24;95576.66;;;6.21;92.16
21011;BME280;10663;42.714;23.274;2022-10-22T03:49:54;95573.00;;;6.22;93.70
21011;BME280;10663;42.714;23.274;2022-10-22T03:51:26;95567.97;;;6.21;94.38
21011;BME280;10663;42.714;23.274;2022-10-22T03:52:57;95567.25;;;6.32;94.00
21011;BME280;10663;42.714;23.274;2022-10-22T03:54:29;95569.00;;;6.38;92.65
21011;BME280;10663;42.714;23.274;2022-10-22T03:55:59;95575.59;;;6.47;92.57
21011;BME280;10663;42.714;23.274;2022-10-22T03:57:30;95572.66;;;6.62;91.70
21011;BME280;10663;42.714;23.274;2022-10-22T03:59:01;95574.78;;;6.71;90.91
21011;BME280;10663;42.714;23.274;2022-10-22T04:00:34;95569.34;;;6.85;89.69
21011;BME280;10663;42.714;23.274;2022-10-22T04:02:05;95563.28;;;7.02;89.93
21011;BME280;10663;42.714;23.274;2022-10-22T04:03:36;95553.91;;;7.06;88.82
21011;BME280;10663;42.714;23.274;2022-10-22T04:05:08;95555.94;;;7.23;88.43
21011;BME280;10663;42.714;23.274;2022-10-22T04:06:39;95559.00;;;7.20;87.68
21011;BME280;10663;42.714;23.274;2022-10-22T04:08:10;95576.50;;;7.14;87.18
21011;BME280;10663;42.714;23.274;2022-10-22T04:09:40;95570.00;;;7.17;87.01
21011;BME280;10663;42.714;23.274;2022-10-22T04:11:13;95572.34;;;7.25;87.64
21011;BME280;10663;42.714;23.274;2022-10-22T04:12:48;95563.16;;;6.97;86.88
21011;BME280;10663;42.714;23.274;2022-10-22T04:14:19;95561.97;;;6.93;87.84
21011;BME280;10663;42.714;23.274;2022-10-22T04:15:50;95562.84;;;7.05;88.02
21011;BME280;10663;42.714;23.274;2022-10-22T04:17:21;95556.06;;;6.98;87.67
21011;BME280;10663;42.714;23.274;2022-10-22T04:18:52;95553.50;;;6.91;88.04
21011;BME280;10663;42.714;23.274;2022-10-22T04:20:23;95558.69;;;6.80;88.15
21011;BME280;10663;42.714;23.274;2022-10-22T04:21:57;95562.25;;;6.67;89.50
21011;BME280;10663;42.714;23.274;2022-10-22T04:23:28;95564.88;;;6.67;89.31
21011;BME280;10663;42.714;23.274;2022-10-22T04:24:59;95558.00;;;6.84;89.37
21011;BME280;10663;42.714;23.274;2022-10-22T04:26:30;95548.50;;;6.83;88.01
21011;BME280;10663;42.714;23.274;2022-10-22T04:28:00;95558.53;;;6.74;88.78
21011;BME280;10663;42.714;23.274;2022-10-22T04:29:31;95563.03;;;6.49;90.61
21011;BME280;10663;42.714;23.274;2022-10-22T04:31:09;95566.41;;;6.74;89.65
21011;BME280;10663;42.714;23.274;2022-10-22T04:32:40;95573.75;;;6.72;88.02
21011;BME280;10663;42.714;23.274;2022-10-22T04:34:11;95575.22;;;6.87;88.90
21011;BME280;10663;42.714;23.274;2022-10-22T04:35:42;95564.84;;;6.92;89.69
21011;BME280;10663;42.714;23.274;2022-10-22T04:37:13;95562.03;;;6.87;88.32
21011;BME280;10663;42.714;23.274;2022-10-22T04:38:45;95561.25;;;6.86;88.19
21011;BME280;10663;42.714;23.274;2022-10-22T04:40:17;95563.75;;;6.81;88.64
21011;BME280;10663;42.714;23.274;2022-10-22T04:41:48;95565.69;;;6.86;87.83
21011;BME280;10663;42.714;23.274;2022-10-22T04:43:18;95566.00;;;6.96;87.62
21011;BME280;10663;42.714;23.274;2022-10-22T04:44:49;95558.78;;;6.91;87.75
21011;BME280;10663;42.714;23.274;2022-10-22T04:46:20;95554.22;;;6.98;87.75
21011;BME280;10663;42.714;23.274;2022-10-22T04:47:51;95561.75;;;6.95;87.67
21011;BME280;10663;42.714;23.274;2022-10-22T04:49:22;95561.25;;;6.86;87.73
21011;BME280;10663;42.714;23.274;2022-10-22T04:50:53;95568.63;;;6.78;88.06
21011;BME280;10663;42.714;23.274;2022-10-22T04:52:26;95565.91;;;6.84;88.58
21011;BME280;10663;42.714;23.274;2022-10-22T04:53:57;95579.38;;;6.76;88.79
21011;BME280;10663;42.714;23.274;2022-10-22T04:55:27;95586.31;;;6.52;90.29
21011;BME280;10663;42.714;23.274;2022-10-22T04:56:58;95583.09;;;6.68;89.59
21011;BME280;10663;42.714;23.274;2022-10-22T04:58:29;95583.69;;;6.70;88.85
21011;BME280;10663;42.714;23.274;2022-10-22T05:00:00;95577.84;;;6.87;88.69
21011;BME280;10663;42.714;23.274;2022-10-22T05:01:36;95570.31;;;6.72;89.37
21011;BME280;10663;42.714;23.274;2022-10-22T05:03:07;95576.31;;;6.61;90.55
21011;BME280;10663;42.714;23.274;2022-10-22T05:04:38;95588.38;;;6.68;89.91
21011;BME280;10663;42.714;23.274;2022-10-22T05:06:09;95592.09;;;6.79;89.16
21011;BME280;10663;42.714;23.274;2022-10-22T05:07:40;95603.91;;;6.52;89.87
21011;BME280;10663;42.714;23.274;2022-10-22T05:09:17;95603.66;;;6.35;90.34
21011;BME280;10663;42.714;23.274;2022-10-22T05:10:48;95605.44;;;6.41;91.04
21011;BME280;10663;42.714;23.274;2022-10-22T05:12:19;95602.16;;;6.46;90.41
21011;BME280;10663;42.714;23.274;2022-10-22T05:13:50;95602.22;;;6.57;89.75
21011;BME280;10663;42.714;23.274;2022-10-22T05:15:21;95610.28;;;6.62;90.09
21011;BME280;10663;42.714;23.274;2022-10-22T05:16:52;95598.03;;;6.31;90.38
21011;BME280;10663;42.714;23.274;2022-10-22T05:18:23;95599.59;;;6.14;91.55
21011;BME280;10663;42.714;23.274;2022-10-22T05:19:54;95591.16;;;6.06;92.12
21011;BME280;10663;42.714;23.274;2022-10-22T05:21:25;95592.41;;;6.28;92.21
21011;BME280;10663;42.714;23.274;2022-10-22T05:22:56;95596.50;;;6.42;91.88
21011;BME280;10663;42.714;23.274;2022-10-22T05:24:28;95595.00;;;6.53;91.54
21011;BME280;10663;42.714;23.274;2022-10-22T05:26:03;95601.38;;;6.63;91.81
21011;BME280;10663;42.714;23.274;2022-10-22T05:27:34;95598.88;;;6.68;91.66
21011;BME280;10663;42.714;23.274;2022-10-22T05:29:05;95602.25;;;6.75;91.17
21011;BME280;10663;42.714;23.274;2022-10-22T05:30:35;95610.66;;;6.66;91.04
21011;BME280;10663;42.714;23.274;2022-10-22T05:32:06;95605.75;;;6.69;90.14
21011;BME280;10663;42.714;23.274;2022-10-22T05:33:37;95602.53;;;6.67;90.37
21011;BME280;10663;42.714;23.274;2022-10-22T05:35:08;95607.16;;;6.72;90.25
21011;BME280;10663;42.714;23.274;2022-10-22T05:36:40;95604.03;;;6.82;89.45
21011;BME280;10663;42.714;23.274;2022-10-22T05:38:10;95606.81;;;6.87;89.12
21011;BME280;10663;42.714;23.274;2022-10-22T05:39:41;95596.19;;;6.93;89.20
21011;BME280;10663;42.714;23.274;2022-10-22T05:41:15;95605.34;;;6.91;88.84
21011;BME280;10663;42.714;23.274;2022-10-22T05:42:46;95606.38;;;6.90;88.80
21011;BME280;10663;42.714;23.274;2022-10-22T05:44:17;95603.16;;;6.88;88.28
21011;BME280;10663;42.714;23.274;2022-10-22T05:45:48;95600.22;;;6.78;88.44
21011;BME280;10663;42.714;23.274;2022-10-22T05:47:19;95604.38;;;6.67;88.54
21011;BME280;10663;42.714;23.274;2022-10-22T05:48:51;95602.75;;;6.84;88.70
21011;BME280;10663;42.714;23.274;2022-10-22T05:50:22;95597.44;;;6.91;88.64
21011;BME280;10663;42.714;23.274;2022-10-22T05:51:53;95607.00;;;7.03;87.95
21011;BME280;10663;42.714;23.274;2022-10-22T05:53:24;95605.78;;;7.06;86.69
21011;BME280;10663;42.714;23.274;2022-10-22T05:54:54;95603.22;;;6.99;86.96
21011;BME280;10663;42.714;23.274;2022-10-22T05:56:27;95602.63;;;6.97;87.27
21011;BME280;10663;42.714;23.274;2022-10-22T05:58:04;95600.66;;;6.93;87.72
21011;BME280;10663;42.714;23.274;2022-10-22T05:59:35;95604.84;;;7.00;88.01
21011;BME280;10663;42.714;23.274;2022-10-22T06:01:17;95600.59;;;6.99;87.19
21011;BME280;10663;42.714;23.274;2022-10-22T06:03:13;95607.19;;;7.08;86.91
21011;BME280;10663;42.714;23.274;2022-10-22T06:04:44;95606.34;;;7.26;86.59
21011;BME280;10663;42.714;23.274;2022-10-22T06:07:46;95603.63;;;7.33;86.48
21011;BME280;10663;42.714;23.274;2022-10-22T06:09:24;95600.59;;;7.47;85.55
21011;BME280;10663;42.714;23.274;2022-10-22T06:10:56;95610.91;;;7.49;85.31
21011;BME280;10663;42.714;23.274;2022-10-22T06:12:27;95606.47;;;7.49;84.91
21011;BME280;10663;42.714;23.274;2022-10-22T06:13:58;95612.22;;;7.58;84.39
21011;BME280;10663;42.714;23.274;2022-10-22T06:15:29;95610.97;;;7.91;85.17
21011;BME280;10663;42.714;23.274;2022-10-22T06:16:59;95605.44;;;7.92;85.79
21011;BME280;10663;42.714;23.274;2022-10-22T06:18:31;95610.88;;;7.97;84.81
21011;BME280;10663;42.714;23.274;2022-10-22T06:20:03;95614.56;;;8.08;85.06
21011;BME280;10663;42.714;23.274;2022-10-22T06:21:34;95614.91;;;8.00;84.38
21011;BME280;10663;42.714;23.274;2022-10-22T06:23:04;95611.50;;;8.22;85.63
21011;BME280;10663;42.714;23.274;2022-10-22T06:24:35;95602.84;;;8.45;85.09
21011;BME280;10663;42.714;23.274;2022-10-22T06:26:07;95599.84;;;8.65;83.28
21011;BME280;10663;42.714;23.274;2022-10-22T06:27:38;95601.22;;;8.68;82.42
21011;BME280;10663;42.714;23.274;2022-10-22T06:29:09;95608.78;;;8.76;82.20
21011;BME280;10663;42.714;23.274;2022-10-22T06:30:40;95620.03;;;8.48;81.75
21011;BME280;10663;42.714;23.274;2022-10-22T06:32:11;95615.94;;;8.52;81.32
21011;BME280;10663;42.714;23.274;2022-10-22T06:33:42;95620.75;;;8.67;81.53
21011;BME280;10663;42.714;23.274;2022-10-22T06:35:13;95614.91;;;8.65;81.95
21011;BME280;10663;42.714;23.274;2022-10-22T06:36:45;95615.00;;;8.58;81.17
21011;BME280;10663;42.714;23.274;2022-10-22T06:38:17;95615.00;;;8.58;81.99
21011;BME280;10663;42.714;23.274;2022-10-22T06:39:48;95605.84;;;8.72;82.12
21011;BME280;10663;42.714;23.274;2022-10-22T06:41:18;95606.06;;;8.82;82.04
21011;BME280;10663;42.714;23.274;2022-10-22T06:42:49;95608.69;;;8.71;81.52
21011;BME280;10663;42.714;23.274;2022-10-22T06:44:21;95608.81;;;8.52;82.30
21011;BME280;10663;42.714;23.274;2022-10-22T06:45:52;95616.03;;;8.45;82.40
21011;BME280;10663;42.714;23.274;2022-10-22T06:47:27;95613.22;;;8.17;83.33
21011;BME280;10663;42.714;23.274;2022-10-22T06:49:01;95614.06;;;8.41;83.38
21011;BME280;10663;42.714;23.274;2022-10-22T06:50:33;95610.06;;;8.85;82.92
21011;BME280;10663;42.714;23.274;2022-10-22T06:52:05;95613.72;;;8.95;82.28
21011;BME280;10663;42.714;23.274;2022-10-22T06:53:37;95610.28;;;8.95;81.29
21011;BME280;10663;42.714;23.274;2022-10-22T06:55:08;95613.59;;;9.14;83.16
21011;BME280;10663;42.714;23.274;2022-10-22T06:56:39;95612.41;;;9.21;82.33
21011;BME280;10663;42.714;23.274;2022-10-22T06:58:10;95622.53;;;9.24;81.71
21011;BME280;10663;42.714;23.274;2022-10-22T06:59:41;95615.75;;;9.57;81.47
21011;BME280;10663;42.714;23.274;2022-10-22T07:01:13;95614.28;;;9.49;79.94
21011;BME280;10663;42.714;23.274;2022-10-22T07:02:49;95618.94;;;9.70;80.39
21011;BME280;10663;42.714;23.274;2022-10-22T07:04:22;95610.22;;;9.70;81.14
21011;BME280;10663;42.714;23.274;2022-10-22T07:05:53;95611.19;;;9.81;79.96
21011;BME280;10663;42.714;23.274;2022-10-22T07:07:24;95607.28;;;9.55;78.74
21011;BME280;10663;42.714;23.274;2022-10-22T07:08:56;95599.00;;;9.51;78.86
21011;BME280;10663;42.714;23.274;2022-10-22T07:10:27;95601.56;;;9.46;78.91
21011;BME280;10663;42.714;23.274;2022-10-22T07:11:58;95601.19;;;9.54;78.81
21011;BME280;10663;42.714;23.274;2022-10-22T07:13:28;95604.53;;;9.50;78.84
21011;BME280;10663;42.714;23.274;2022-10-22T07:14:59;95609.44;;;9.58;78.56
21011;BME280;10663;42.714;23.274;2022-10-22T07:16:30;95606.78;;;9.58;78.32
21011;BME280;10663;42.714;23.274;2022-10-22T07:18:01;95613.88;;;9.97;80.35
21011;BME280;10663;42.714;23.274;2022-10-22T07:19:34;95613.28;;;10.24;81.46
21011;BME280;10663;42.714;23.274;2022-10-22T07:21:06;95611.06;;;10.32;80.11
21011;BME280;10663;42.714;23.274;2022-10-22T07:22:37;95608.16;;;10.50;77.31
21011;BME280;10663;42.714;23.274;2022-10-22T07:24:08;95605.19;;;10.47;78.63
21011;BME280;10663;42.714;23.274;2022-10-22T07:25:40;95605.06;;;10.37;76.92
21011;BME280;10663;42.714;23.274;2022-10-22T07:27:11;95603.84;;;10.61;75.17
21011;BME280;10663;42.714;23.274;2022-10-22T07:28:42;95600.06;;;10.74;74.58
21011;BME280;10663;42.714;23.274;2022-10-22T07:30:13;95600.06;;;10.57;74.35
21011;BME280;10663;42.714;23.274;2022-10-22T07:31:44;95595.38;;;10.81;76.64
21011;BME280;10663;42.714;23.274;2022-10-22T07:33:14;95594.63;;;10.85;74.34
21011;BME280;10663;42.714;23.274;2022-10-22T07:34:45;95599.03;;;10.41;74.90
21011;BME280;10663;42.714;23.274;2022-10-22T07:36:16;95600.59;;;10.76;75.71
21011;BME280;10663;42.714;23.274;2022-10-22T07:37:47;95594.97;;;10.89;73.37
21011;BME280;10663;42.714;23.274;2022-10-22T07:39:18;95588.25;;;10.81;74.35
21011;BME280;10663;42.714;23.274;2022-10-22T07:40:49;95588.88;;;10.88;74.05
21011;BME280;10663;42.714;23.274;2022-10-22T07:42:20;95587.50;;;10.86;75.26
21011;BME280;10663;42.714;23.274;2022-10-22T07:43:51;95584.84;;;10.86;74.99
21011;BME280;10663;42.714;23.274;2022-10-22T07:45:22;95582.09;;;10.98;74.22
21011;BME280;10663;42.714;23.274;2022-10-22T07:46:53;95581.91;;;11.04;76.63
21011;BME280;10663;42.714;23.274;2022-10-22T07:48:24;95580.38;;;11.08;75.74
21011;BME280;10663;42.714;23.274;2022-10-22T07:49:54;95584.22;;;11.17;77.27
21011;BME280;10663;42.714;23.274;2022-10-22T07:51:25;95574.22;;;11.24;75.18
21011;BME280;10663;42.714;23.274;2022-10-22T07:52:56;95578.75;;;11.29;74.09
21011;BME280;10663;42.714;23.274;2022-10-22T07:54:27;95584.88;;;11.30;74.24
21011;BME280;10663;42.714;23.274;2022-10-22T07:55:58;95581.69;;;11.28;73.93
21011;BME280;10663;42.714;23.274;2022-10-22T07:57:29;95585.00;;;11.40;73.07
21011;BME280;10663;42.714;23.274;2022-10-22T07:59:01;95580.50;;;11.40;72.36
21011;BME280;10663;42.714;23.274;2022-10-22T08:00:32;95582.78;;;11.53;72.05
21011;BME280;10663;42.714;23.274;2022-10-22T08:02:03;95581.22;;;11.57;73.29
21011;BME280;10663;42.714;23.274;2022-10-22T08:03:34;95585.66;;;11.30;71.98
21011;BME280;10663;42.714;23.274;2022-10-22T08:05:05;95572.06;;;11.70;71.08
21011;BME280;10663;42.714;23.274;2022-10-22T08:06:36;95562.09;;;11.29;71.56
21011;BME280;10663;42.714;23.274;2022-10-22T08:08:09;95559.09;;;11.47;73.59
21011;BME280;10663;42.714;23.274;2022-10-22T08:09:40;95564.69;;;11.72;73.77
21011;BME280;10663;42.714;23.274;2022-10-22T08:11:11;95568.50;;;11.59;72.28
21011;BME280;10663;42.714;23.274;2022-10-22T08:12:42;95568.94;;;11.73;74.17
21011;BME280;10663;42.714;23.274;2022-10-22T08:14:13;95567.44;;;11.55;70.90
21011;BME280;10663;42.714;23.274;2022-10-22T08:15:44;95561.44;;;11.65;70.91
21011;BME280;10663;42.714;23.274;2022-10-22T08:17:16;95562.72;;;11.62;71.85
21011;BME280;10663;42.714;23.274;2022-10-22T08:18:47;95561.69;;;11.90;69.91
21011;BME280;10663;42.714;23.274;2022-10-22T08:20:18;95555.59;;;11.90;70.00
21011;BME280;10663;42.714;23.274;2022-10-22T08:21:49;95547.28;;;11.81;70.81
21011;BME280;10663;42.714;23.274;2022-10-22T08:23:20;95553.53;;;11.97;70.49
21011;BME280;10663;42.714;23.274;2022-10-22T08:24:52;95548.56;;;11.79;70.68
21011;BME280;10663;42.714;23.274;2022-10-22T08:26:23;95548.56;;;12.06;69.51
21011;BME280;10663;42.714;23.274;2022-10-22T08:27:54;95547.22;;;12.35;68.35
21011;BME280;10663;42.714;23.274;2022-10-22T08:49:04;95549.78;;;13.09;67.58
21011;BME280;10663;42.714;23.274;2022-10-22T08:50:43;95543.25;;;12.85;66.56